createdAt,value
2022-10-11T00:02:01.716Z,7.10
2022-10-11T00:04:28.162Z,7.20
2022-10-11T00:06:54.858Z,7.10
2022-10-11T00:09:21.360Z,7.30
2022-10-11T00:11:47.755Z,6.80
2022-10-11T00:14:14.516Z,6.80
2022-10-11T00:16:44.332Z,7.70
2022-10-11T00:19:11.541Z,7.70
2022-10-11T00:21:38.026Z,7.40
2022-10-11T00:24:05.462Z,7.00
2022-10-11T00:26:32.057Z,7.80
2022-10-11T00:28:58.563Z,7.30
2022-10-11T00:31:25.221Z,8.20
2022-10-11T00:33:53.964Z,8.30
2022-10-11T00:36:21.826Z,8.00
2022-10-11T00:38:48.652Z,7.70
2022-10-11T00:41:16.809Z,8.40
2022-10-11T00:43:44.416Z,8.10
2022-10-11T00:46:13.923Z,7.90
2022-10-11T00:48:45.990Z,8.10
2022-10-11T00:51:23.360Z,8.20
2022-10-11T00:53:51.897Z,8.50
2022-10-11T00:56:31.214Z,8.80
2022-10-11T00:59:02.342Z,8.90
2022-10-11T01:01:28.947Z,8.80
2022-10-11T01:03:56.950Z,8.90
2022-10-11T01:06:23.449Z,9.00
2022-10-11T01:08:52.090Z,9.00
2022-10-11T01:11:24.394Z,8.70
2022-10-11T01:14:43.745Z,8.50
2022-10-11T01:17:29.506Z,8.60
2022-10-11T01:20:31.948Z,8.30
2022-10-11T01:23:55.158Z,8.10
2022-10-11T01:26:48.565Z,9.00
2022-10-11T01:30:02.984Z,11.70
2022-10-11T01:32:40.281Z,11.10
2022-10-11T01:35:21.074Z,11.90
2022-10-11T01:38:01.404Z,10.30
2022-10-11T01:40:38.959Z,10.00
2022-10-11T01:43:06.066Z,10.90
2022-10-11T01:45:34.670Z,11.30
2022-10-11T01:48:12.274Z,11.00
2022-10-11T01:50:52.458Z,9.20
2022-10-11T01:53:46.449Z,9.80
2022-10-11T01:56:40.422Z,10.70
2022-10-11T01:59:41.170Z,10.40
2022-10-11T02:02:45.905Z,10.50
2022-10-11T02:05:45.220Z,15.50
2022-10-11T02:08:45.113Z,15.20
2022-10-11T02:11:38.928Z,12.20
2022-10-11T02:14:20.436Z,9.60
2022-10-11T02:16:54.999Z,9.70
2022-10-11T02:19:30.026Z,9.40
2022-10-11T02:22:06.037Z,9.10
2022-10-11T02:24:37.608Z,8.80
2022-10-11T02:27:06.180Z,9.60
2022-10-11T02:29:39.269Z,9.20
2022-10-11T02:32:08.545Z,9.30
2022-10-11T02:34:47.568Z,8.80
2022-10-11T02:37:34.388Z,8.80
2022-10-11T02:40:24.806Z,8.90
2022-10-11T02:42:59.360Z,10.00
2022-10-11T02:45:36.724Z,9.40
2022-10-11T02:48:06.039Z,10.30
2022-10-11T02:50:33.031Z,9.50
2022-10-11T02:52:59.484Z,9.40
2022-10-11T02:55:26.083Z,9.70
2022-10-11T02:57:52.693Z,9.40
2022-10-11T03:00:19.393Z,9.50
2022-10-11T03:02:45.764Z,10.70
2022-10-11T03:05:12.350Z,11.60
2022-10-11T03:07:38.793Z,10.90
2022-10-11T03:10:06.782Z,10.40
2022-10-11T03:12:33.643Z,10.70
2022-10-11T03:15:00.084Z,10.80
2022-10-11T03:17:42.586Z,11.20
2022-10-11T03:20:09.627Z,10.40
2022-10-11T03:22:36.410Z,11.20
2022-10-11T03:25:04.675Z,11.00
2022-10-11T03:27:33.634Z,12.10
2022-10-11T03:30:00.634Z,11.40
2022-10-11T03:32:28.241Z,11.10
2022-10-11T03:34:54.686Z,12.20
2022-10-11T03:37:21.201Z,11.10
2022-10-11T03:39:47.638Z,11.20
2022-10-11T03:42:14.676Z,11.10
2022-10-11T03:44:42.172Z,10.30
2022-10-11T03:47:09.835Z,10.50
2022-10-11T03:49:41.337Z,10.10
2022-10-11T03:52:10.445Z,11.20
2022-10-11T03:54:36.992Z,10.40
2022-10-11T03:57:03.645Z,9.90
2022-10-11T03:59:30.233Z,11.20
2022-10-11T04:01:57.062Z,10.80
2022-10-11T04:04:23.618Z,10.50
2022-10-11T04:06:50.018Z,10.20
2022-10-11T04:09:16.502Z,10.40
2022-10-11T04:11:42.876Z,10.90
2022-10-11T04:14:09.397Z,12.30
2022-10-11T04:16:38.588Z,13.30
2022-10-11T04:19:05.100Z,17.10
2022-10-11T04:21:31.550Z,16.40
2022-10-11T04:23:58.005Z,15.90
2022-10-11T04:26:24.430Z,14.50
2022-10-11T04:28:50.940Z,14.20
2022-10-11T04:31:17.444Z,12.70
2022-10-11T04:33:43.928Z,12.70
2022-10-11T04:36:10.585Z,12.60
2022-10-11T04:38:36.992Z,12.10
2022-10-11T04:41:09.358Z,11.00
2022-10-11T04:43:36.699Z,11.60
2022-10-11T04:46:04.460Z,11.80
2022-10-11T04:48:31.399Z,13.10
2022-10-11T04:50:57.950Z,17.70
2022-10-11T04:53:24.955Z,38.10
2022-10-11T04:55:57.906Z,46.30
2022-10-11T04:58:24.375Z,48.10
2022-10-11T05:00:50.961Z,52.90
2022-10-11T05:03:17.353Z,44.10
2022-10-11T05:05:43.868Z,32.30
2022-10-11T05:08:11.496Z,20.00
2022-10-11T05:10:37.999Z,24.10
2022-10-11T05:13:04.638Z,30.60
2022-10-11T05:15:32.245Z,33.20
2022-10-11T05:17:58.711Z,30.60
2022-10-11T05:20:25.722Z,20.70
2022-10-11T05:22:52.132Z,14.30
2022-10-11T05:25:18.513Z,18.80
2022-10-11T05:27:45.454Z,33.30
2022-10-11T05:30:12.425Z,25.90
2022-10-11T05:32:38.945Z,21.60
2022-10-11T05:35:06.056Z,16.10
2022-10-11T05:37:32.579Z,12.90
2022-10-11T05:39:58.958Z,15.00
2022-10-11T05:42:25.367Z,12.60
2022-10-11T05:44:51.771Z,11.70
2022-10-11T05:47:18.194Z,11.20
2022-10-11T05:49:44.575Z,11.80
2022-10-11T05:52:11.477Z,13.00
2022-10-11T05:54:37.870Z,12.30
2022-10-11T05:57:04.358Z,11.10
2022-10-11T05:59:30.822Z,11.20
2022-10-11T06:01:57.229Z,10.20
2022-10-11T06:04:23.645Z,10.90
2022-10-11T06:06:50.041Z,8.80
2022-10-11T06:09:16.473Z,11.40
2022-10-11T06:11:44.030Z,10.50
2022-10-11T06:14:11.499Z,10.00
2022-10-11T06:16:38.320Z,11.00
2022-10-11T06:19:05.112Z,10.60
2022-10-11T06:21:31.539Z,12.60
2022-10-11T06:24:01.394Z,12.60
2022-10-11T06:26:29.419Z,19.50
2022-10-11T06:28:56.497Z,11.90
2022-10-11T06:31:23.323Z,10.70
2022-10-11T06:33:49.780Z,9.90
2022-10-11T06:36:17.812Z,10.20
2022-10-11T06:38:45.486Z,11.20
2022-10-11T06:41:22.712Z,9.50
2022-10-11T06:43:51.705Z,10.40
2022-10-11T06:46:20.667Z,9.70
2022-10-11T06:48:48.957Z,10.50
2022-10-11T06:51:19.021Z,11.70
2022-10-11T06:53:55.580Z,10.90
2022-10-11T06:56:22.885Z,10.80
2022-10-11T06:58:50.973Z,10.10
2022-10-11T07:01:21.270Z,10.90
2022-10-11T07:03:48.430Z,10.60
2022-10-11T07:06:19.094Z,11.30
2022-10-11T07:08:46.637Z,11.20
2022-10-11T07:11:23.146Z,11.50
2022-10-11T07:13:55.929Z,11.30
2022-10-11T07:16:24.229Z,9.70
2022-10-11T07:19:00.944Z,10.40
2022-10-11T07:21:29.303Z,9.40
2022-10-11T07:23:55.757Z,9.90
2022-10-11T07:26:22.258Z,9.70
2022-10-11T07:28:48.796Z,10.30
2022-10-11T07:31:20.109Z,9.80
2022-10-11T07:33:46.686Z,10.80
2022-10-11T07:36:14.204Z,10.30
2022-10-11T07:38:43.648Z,9.10
2022-10-11T07:41:11.501Z,10.70
2022-10-11T07:43:38.978Z,9.60
2022-10-11T07:46:06.300Z,9.30
2022-10-11T07:48:35.342Z,9.60
2022-10-11T07:51:11.162Z,10.20
2022-10-11T07:53:49.624Z,8.50
2022-10-11T07:56:26.743Z,9.20
2022-10-11T07:58:56.349Z,8.50
2022-10-11T08:01:24.883Z,10.40
2022-10-11T08:03:51.699Z,11.90
2022-10-11T08:06:22.874Z,8.50
2022-10-11T08:08:50.126Z,10.00
2022-10-11T08:11:36.743Z,10.30
2022-10-11T08:14:08.718Z,10.90
2022-10-11T08:16:37.856Z,9.80
2022-10-11T08:19:06.290Z,9.10
2022-10-11T08:21:33.435Z,10.80
2022-10-11T08:24:03.393Z,9.60
2022-10-11T08:26:30.517Z,8.60
2022-10-11T08:28:59.283Z,10.70
2022-10-11T08:31:25.708Z,8.50
2022-10-11T08:33:52.117Z,8.60
2022-10-11T08:36:18.564Z,10.10
2022-10-11T08:38:44.977Z,9.50
2022-10-11T08:41:31.673Z,9.00
2022-10-11T08:44:13.614Z,8.50
2022-10-11T08:46:45.532Z,8.80
2022-10-11T08:49:15.588Z,10.00
2022-10-11T08:51:48.503Z,7.70
2022-10-11T08:54:32.165Z,6.30
2022-10-11T08:57:01.022Z,6.80
2022-10-11T08:59:41.402Z,5.10
2022-10-11T09:02:43.650Z,5.00
2022-10-11T09:05:18.851Z,4.60
2022-10-11T09:08:14.278Z,4.60
2022-10-11T09:11:14.158Z,3.90
2022-10-11T09:14:21.085Z,5.20
2022-10-11T09:17:27.861Z,4.40
2022-10-11T09:20:19.699Z,4.90
2022-10-11T09:22:55.169Z,4.20
2022-10-11T09:25:35.575Z,3.80
2022-10-11T09:28:33.103Z,3.10
2022-10-11T09:31:00.123Z,2.80
2022-10-11T09:33:36.586Z,3.10
2022-10-11T09:36:19.612Z,3.30
2022-10-11T09:39:29.131Z,2.90
2022-10-11T09:42:06.973Z,2.60
2022-10-11T09:44:46.924Z,2.50
2022-10-11T09:47:27.889Z,2.70
2022-10-11T09:50:17.556Z,2.50
2022-10-11T09:53:00.696Z,2.50
2022-10-11T09:55:36.195Z,2.70
2022-10-11T09:58:05.948Z,2.60
2022-10-11T10:00:34.713Z,2.40
2022-10-11T10:03:04.582Z,2.00
2022-10-11T10:05:37.588Z,2.30
2022-10-11T10:08:24.282Z,2.40
2022-10-11T10:10:59.444Z,2.50
2022-10-11T10:13:44.549Z,2.10
2022-10-11T10:16:30.372Z,2.10
2022-10-11T10:19:18.351Z,2.70
2022-10-11T10:21:49.261Z,2.50
2022-10-11T10:24:34.401Z,2.50
2022-10-11T10:27:06.153Z,3.30
2022-10-11T10:29:33.225Z,2.30
2022-10-11T10:32:25.688Z,2.50
2022-10-11T10:35:16.762Z,2.30
2022-10-11T10:37:52.825Z,2.20
2022-10-11T10:40:40.579Z,2.00
2022-10-11T10:43:15.802Z,2.40
2022-10-11T10:46:19.618Z,2.20
2022-10-11T10:52:41.702Z,2.40
2022-10-11T10:55:26.644Z,2.40
2022-10-11T10:58:20.463Z,3.00
2022-10-11T11:00:50.217Z,3.10
2022-10-11T11:03:44.287Z,2.90
2022-10-11T11:06:37.345Z,2.50
2022-10-11T11:09:34.750Z,2.30
2022-10-11T11:12:36.187Z,2.10
2022-10-11T11:15:15.430Z,1.60
2022-10-11T11:18:28.508Z,1.40
2022-10-11T11:21:15.266Z,1.70
2022-10-11T11:24:06.577Z,2.10
2022-10-11T11:27:03.883Z,1.70
2022-10-11T11:29:55.363Z,1.60
2022-10-11T11:32:45.987Z,2.10
2022-10-11T11:35:34.536Z,1.90
2022-10-11T11:38:16.669Z,2.00
2022-10-11T11:40:50.151Z,1.60
2022-10-11T11:43:39.412Z,1.50
2022-10-11T11:46:17.544Z,1.70
2022-10-11T11:48:44.606Z,1.80
2022-10-11T11:51:30.422Z,2.10
2022-10-11T11:55:00.185Z,1.40
2022-10-11T11:57:57.480Z,1.50
2022-10-11T12:00:30.923Z,1.70
2022-10-11T12:03:12.553Z,1.70
2022-10-11T12:05:59.205Z,1.80
2022-10-11T12:08:33.929Z,1.60
2022-10-11T12:11:02.478Z,1.30
2022-10-11T12:13:36.986Z,1.60
2022-10-11T12:16:06.450Z,2.00
2022-10-11T12:18:40.536Z,2.00
2022-10-11T12:21:30.557Z,2.10
2022-10-11T12:24:09.854Z,1.40
2022-10-11T12:26:44.751Z,1.40
2022-10-11T12:29:17.267Z,1.30
2022-10-11T12:31:49.493Z,1.50
2022-10-11T12:34:34.209Z,1.40
2022-10-11T12:37:20.645Z,1.40
2022-10-11T12:39:57.025Z,1.60
2022-10-11T12:42:27.081Z,2.00
2022-10-11T12:45:12.172Z,1.60
2022-10-11T12:47:51.188Z,1.80
2022-10-11T12:50:57.626Z,1.60
2022-10-11T12:54:25.369Z,1.50
2022-10-11T12:57:03.319Z,1.50
2022-10-11T12:59:32.445Z,1.90
2022-10-11T13:02:00.508Z,1.80
2022-10-11T13:04:37.034Z,1.90
2022-10-11T13:07:15.613Z,2.00
2022-10-11T13:09:48.856Z,1.80
2022-10-11T13:12:26.092Z,2.00
2022-10-11T13:15:09.737Z,2.50
2022-10-11T13:17:40.445Z,1.60
2022-10-11T13:20:18.160Z,2.10
2022-10-11T13:22:50.475Z,1.70
2022-10-11T13:25:22.391Z,1.80
2022-10-11T13:27:52.668Z,1.80
2022-10-11T13:30:31.897Z,3.30
2022-10-11T13:33:00.607Z,4.40
2022-10-11T13:35:35.290Z,4.50
2022-10-11T13:38:04.001Z,5.80
2022-10-11T13:40:31.030Z,2.70
2022-10-11T13:42:58.838Z,1.80
2022-10-11T13:45:30.663Z,2.10
2022-10-11T13:47:57.949Z,1.70
2022-10-11T13:50:34.580Z,1.80
2022-10-11T13:53:21.105Z,3.40
2022-10-11T13:55:52.008Z,4.00
2022-10-11T13:58:40.491Z,8.00
2022-10-11T14:01:26.972Z,5.10
2022-10-11T14:03:59.348Z,2.30
2022-10-11T14:06:42.399Z,1.40
2022-10-11T14:09:38.524Z,1.60
2022-10-11T14:12:38.117Z,1.70
2022-10-11T14:15:23.694Z,1.50
2022-10-11T14:17:51.313Z,1.40
2022-10-11T14:20:43.751Z,1.60
2022-10-11T14:23:10.297Z,1.50
2022-10-11T14:25:36.713Z,1.30
2022-10-11T14:28:05.693Z,2.60
2022-10-11T14:30:32.195Z,4.70
2022-10-11T14:33:02.058Z,2.70
2022-10-11T14:35:32.225Z,2.60
2022-10-11T14:37:59.484Z,2.40
2022-10-11T14:40:30.074Z,2.30
2022-10-11T14:42:57.005Z,2.90
2022-10-11T14:45:24.352Z,1.70
2022-10-11T14:47:51.748Z,2.00
2022-10-11T14:50:36.498Z,2.90
2022-10-11T14:53:05.710Z,2.90
2022-10-11T14:55:32.482Z,2.50
2022-10-11T14:57:59.022Z,2.40
2022-10-11T15:00:29.706Z,5.90
2022-10-11T15:02:57.289Z,2.10
2022-10-11T15:05:33.728Z,2.40
2022-10-11T15:08:02.650Z,1.90
2022-10-11T15:10:37.211Z,1.70
2022-10-11T15:13:07.067Z,1.70
2022-10-11T15:15:36.939Z,2.80
2022-10-11T15:18:06.955Z,1.90
2022-10-11T15:20:41.782Z,2.20
2022-10-11T15:23:10.561Z,4.20
2022-10-11T15:25:39.981Z,12.80
2022-10-11T15:28:08.504Z,35.70
2022-10-11T15:30:41.365Z,14.20
2022-10-11T15:33:09.021Z,7.30
2022-10-11T15:35:35.548Z,43.80
2022-10-11T15:38:03.492Z,43.00
2022-10-11T15:40:37.072Z,52.10
2022-10-11T15:43:04.286Z,50.40
2022-10-11T15:45:31.115Z,111.60
2022-10-11T15:47:58.115Z,90.90
2022-10-11T15:50:39.652Z,114.60
2022-10-11T15:53:12.196Z,84.80
2022-10-11T15:55:43.722Z,79.80
2022-10-11T15:58:25.673Z,54.80
2022-10-11T16:00:55.868Z,42.40
2022-10-11T16:03:27.636Z,34.60
2022-10-11T16:05:55.365Z,26.60
2022-10-11T16:08:22.330Z,30.00
2022-10-11T16:10:49.639Z,29.10
2022-10-11T16:13:16.576Z,23.00
2022-10-11T16:15:44.874Z,20.00
2022-10-11T16:18:18.318Z,21.50
2022-10-11T16:20:47.894Z,20.00
2022-10-11T16:23:15.505Z,23.60
2022-10-11T16:25:41.934Z,22.00
2022-10-11T16:28:09.722Z,30.60
2022-10-11T16:30:43.298Z,28.10
2022-10-11T16:33:09.896Z,32.70
2022-10-11T16:35:41.019Z,25.70
2022-10-11T16:38:07.553Z,22.90
2022-10-11T16:40:35.868Z,37.10
2022-10-11T16:43:07.471Z,48.50
2022-10-11T16:45:35.740Z,53.00
2022-10-11T16:48:03.091Z,42.60
2022-10-11T16:50:29.545Z,40.30
2022-10-11T16:52:57.150Z,37.20
2022-10-11T16:55:24.374Z,31.40
2022-10-11T16:57:50.854Z,33.80
2022-10-11T17:00:17.492Z,33.40
2022-10-11T17:02:43.967Z,35.70
2022-10-11T17:05:10.384Z,25.20
2022-10-11T17:07:37.061Z,31.60
2022-10-11T17:10:05.119Z,28.80
2022-10-11T17:12:32.479Z,25.00
2022-10-11T17:14:58.919Z,22.70
2022-10-11T17:17:25.430Z,21.00
2022-10-11T17:19:51.879Z,19.80
2022-10-11T17:22:20.042Z,17.40
2022-10-11T17:24:46.571Z,18.20
2022-10-11T17:27:13.632Z,17.20
2022-10-11T17:29:40.334Z,18.20
2022-10-11T17:32:07.177Z,21.10
2022-10-11T17:34:33.937Z,22.30
2022-10-11T17:37:00.597Z,25.70
2022-10-11T17:39:27.146Z,31.80
2022-10-11T17:41:53.839Z,34.40
2022-10-11T17:44:21.707Z,34.90
2022-10-11T17:46:48.761Z,41.10
2022-10-11T17:49:15.989Z,41.70
2022-10-11T17:51:43.498Z,42.10
2022-10-11T17:54:13.442Z,43.20
2022-10-11T17:56:41.762Z,44.50
2022-10-11T17:59:21.268Z,38.50
2022-10-11T18:01:50.216Z,36.50
2022-10-11T18:04:19.416Z,37.30
2022-10-11T18:06:47.677Z,34.00
2022-10-11T18:09:18.281Z,34.70
2022-10-11T18:11:45.379Z,33.20
2022-10-11T18:14:12.531Z,31.90
2022-10-11T18:16:40.543Z,30.30
2022-10-11T18:19:12.387Z,26.90
2022-10-11T18:21:39.969Z,27.80
2022-10-11T18:24:12.505Z,28.20
2022-10-11T18:26:39.813Z,33.90
2022-10-11T18:29:06.745Z,31.90
2022-10-11T18:31:35.285Z,31.50
2022-10-11T18:34:03.884Z,28.80
2022-10-11T18:36:32.345Z,28.60
2022-10-11T18:39:04.301Z,27.80
2022-10-11T18:41:33.570Z,27.60
2022-10-11T18:44:03.484Z,27.20
2022-10-11T18:46:31.738Z,26.40
2022-10-11T18:49:01.917Z,25.20
2022-10-11T18:51:33.150Z,28.90
2022-10-11T18:54:00.955Z,28.60
2022-10-11T18:56:29.857Z,30.30
2022-10-11T18:58:57.729Z,32.80
2022-10-11T19:01:29.371Z,35.90
2022-10-11T19:03:59.031Z,35.80
2022-10-11T19:06:36.321Z,37.90
2022-10-11T19:09:17.670Z,44.40
2022-10-11T19:11:44.412Z,44.50
2022-10-11T19:14:15.125Z,48.80
2022-10-11T19:16:48.984Z,52.50
2022-10-11T19:19:18.559Z,55.20
2022-10-11T19:21:47.987Z,54.60
2022-10-11T19:24:20.229Z,51.00
2022-10-11T19:26:47.929Z,49.10
2022-10-11T19:29:21.268Z,44.00
2022-10-11T19:31:54.326Z,49.60
2022-10-11T19:34:21.999Z,64.30
2022-10-11T19:36:50.744Z,50.70
2022-10-11T19:39:18.645Z,50.60
2022-10-11T19:41:45.658Z,52.80
2022-10-11T19:44:13.852Z,54.90
2022-10-11T19:46:57.566Z,53.10
2022-10-11T19:49:25.918Z,49.70
2022-10-11T19:51:53.437Z,51.60
2022-10-11T19:54:19.967Z,49.20
2022-10-11T19:56:47.234Z,49.60
2022-10-11T19:59:14.567Z,50.10
2022-10-11T20:01:42.859Z,45.00
2022-10-11T20:04:33.221Z,44.30
2022-10-11T20:06:58.893Z,49.30
2022-10-11T20:09:30.348Z,49.20
2022-10-11T20:11:57.276Z,50.10
2022-10-11T20:14:23.925Z,57.00
2022-10-11T20:16:50.967Z,60.10
2022-10-11T20:19:18.619Z,68.60
2022-10-11T20:21:45.573Z,67.50
2022-10-11T20:24:12.297Z,65.90
2022-10-11T20:26:39.381Z,66.60
2022-10-11T20:29:06.753Z,68.20
2022-10-11T20:31:38.039Z,66.20
2022-10-11T20:34:07.213Z,74.60
2022-10-11T20:36:36.106Z,66.10
2022-10-11T20:39:05.723Z,67.60
2022-10-11T20:41:42.783Z,64.60
2022-10-11T20:44:09.784Z,68.50
2022-10-11T20:46:39.471Z,71.20
2022-10-11T20:49:11.745Z,68.80
2022-10-11T20:51:41.710Z,68.10
2022-10-11T20:54:09.033Z,67.20
2022-10-11T20:56:37.245Z,66.90
2022-10-11T20:59:05.138Z,64.30
2022-10-11T21:01:38.614Z,65.80
2022-10-11T21:04:07.581Z,63.50
2022-10-11T21:06:34.537Z,62.90
2022-10-11T21:09:01.826Z,63.70
2022-10-11T21:11:31.981Z,58.80
2022-10-11T21:14:02.558Z,61.30
2022-10-11T21:16:29.629Z,57.30
2022-10-11T21:18:59.104Z,61.60
2022-10-11T21:21:27.445Z,63.30
2022-10-11T21:23:56.221Z,63.40
2022-10-11T21:26:22.853Z,64.50
2022-10-11T21:28:49.735Z,62.80
2022-10-11T21:31:20.132Z,62.60
2022-10-11T21:33:46.945Z,64.90
2022-10-11T21:36:17.773Z,61.40
2022-10-11T21:38:45.074Z,62.90
2022-10-11T21:41:16.793Z,57.10
2022-10-11T21:43:43.501Z,57.30
2022-10-11T21:46:17.194Z,57.00
2022-10-11T21:48:43.973Z,53.70
2022-10-11T21:51:18.912Z,54.60
2022-10-11T21:53:45.391Z,58.70
2022-10-11T21:56:11.822Z,57.50
2022-10-11T21:58:38.268Z,59.40
2022-10-11T22:01:05.416Z,58.20
2022-10-11T22:03:32.204Z,61.70
2022-10-11T22:06:03.434Z,59.20
2022-10-11T22:08:30.361Z,59.00
2022-10-11T22:10:59.642Z,57.70
2022-10-11T22:13:28.764Z,53.70
2022-10-11T22:15:57.991Z,53.40
2022-10-11T22:18:25.226Z,49.40
2022-10-11T22:20:51.801Z,50.20
2022-10-11T22:23:19.108Z,46.10
2022-10-11T22:25:45.883Z,46.40
2022-10-11T22:28:13.111Z,46.00
2022-10-11T22:30:39.533Z,46.20
2022-10-11T22:33:05.966Z,43.90
2022-10-11T22:35:37.541Z,45.60
2022-10-11T22:38:06.508Z,42.40
2022-10-11T22:40:33.007Z,41.90
2022-10-11T22:42:59.574Z,42.60
2022-10-11T22:45:26.008Z,41.00
2022-10-11T22:47:52.461Z,39.00
2022-10-11T22:50:18.936Z,37.70
2022-10-11T22:52:45.347Z,36.20
2022-10-11T22:55:15.136Z,37.80
2022-10-11T22:57:44.035Z,36.10
2022-10-11T23:00:11.138Z,37.50
2022-10-11T23:02:37.601Z,36.60
2022-10-11T23:05:04.399Z,35.30
2022-10-11T23:07:30.797Z,37.50
2022-10-11T23:09:57.255Z,35.00
2022-10-11T23:12:23.741Z,29.70
2022-10-11T23:14:50.189Z,31.70
2022-10-11T23:17:16.669Z,32.10
2022-10-11T23:19:43.204Z,31.70
2022-10-11T23:22:09.665Z,30.30
2022-10-11T23:24:36.037Z,29.90
2022-10-11T23:27:02.568Z,28.30
2022-10-11T23:29:32.543Z,30.10
2022-10-11T23:31:59.039Z,32.30
2022-10-11T23:34:25.504Z,31.70
2022-10-11T23:36:51.932Z,31.40
2022-10-11T23:39:18.525Z,31.60
2022-10-11T23:41:45.067Z,31.70
2022-10-11T23:44:11.445Z,30.70
2022-10-11T23:46:37.818Z,31.60
2022-10-11T23:49:04.978Z,30.50
2022-10-11T23:51:31.573Z,28.80
2022-10-11T23:53:58.150Z,32.00
2022-10-11T23:56:24.749Z,31.70
2022-10-11T23:58:51.136Z,30.70
